Aviation Digital Data Service (ADDS)

Output produced by METARs form (0455 UTC 20 April 2018)
found at http://aviationweather.gov/adds/metars/
 
METAR text: RJAA 200430Z 32006KT 280V360 9999 FEW030 SCT040 24/07 Q1016 NOSIG RMK 1CU030 3CU040 A3002
Conditions at: RJAA (NARITA INTL , JP) observed 0430 UTC 20 April 2018
Temperature: 24.0°C (75°F)
Dewpoint: 7.0°C (45°F) [RH = 34%]
Pressure (altimeter): 30.00 inches Hg (1016.0 mb)
Winds: from the NW (320 degrees) at 7 MPH (6 knots; 3.1 m/s)
Visibility: 6 or more miles (10+ km)
Ceiling: at least 12,000 feet AGL
Clouds: few clouds at 3000 feet AGL
scattered clouds at 4000 feet AGL
Weather: no significant weather observed at this time

Forecast for: RJAA (NARITA INTL , JP)
Text: TAF RJAA 192305Z 2000/2106 34008KT 9999 FEW030
Forecast period: 0000 to 0600 UTC 20 April 2018
Forecast type: FROM: standard forecast or significant change
Winds: from the NNW (340 degrees) at 9 MPH (8 knots; 4.2 m/s)
Visibility: 6 or more miles (10+ km)
Clouds: few clouds at 3000 feet AGL
Weather: no significant weather forecast for this period
Forecast for: RJAA (NARITA INTL , JP)
Text: TAF RJAA 192305Z 2000/2106 34008KT 9999 FEW030
Forecast period: 0000 to 0600 UTC 20 April 2018
Forecast type: FROM: standard forecast or significant change
Winds: from the NNW (340 degrees) at 9 MPH (8 knots; 4.2 m/s)
Visibility: 6 or more miles (10+ km)
Clouds: few clouds at 3000 feet AGL
Weather: no significant weather forecast for this period
Forecast for: RJAA (NARITA INTL , JP)
Text: TAF RJAA 192305Z 2000/2106 34008KT 9999 FEW030
Forecast period: 0600 to 1000 UTC 20 April 2018
Forecast type: BECOMING: Conditions expected to become as follows by 0800 UTC 20 April 2018
Winds: from the E (80 degrees) at 12 MPH (10 knots; 5.2 m/s)
Visibility: 6 or more miles (10+ km)
Clouds: few clouds at 3000 feet AGL
Weather: no significant weather forecast for this period
Forecast for: RJAA (NARITA INTL , JP)
Text: TAF RJAA 192305Z 2000/2106 34008KT 9999 FEW030
Forecast period: 0600 to 1000 UTC 20 April 2018
Forecast type: BECOMING: Conditions expected to become as follows by 0800 UTC 20 April 2018
Winds: from the E (80 degrees) at 12 MPH (10 knots; 5.2 m/s)
Visibility: 6 or more miles (10+ km)
Clouds: few clouds at 3000 feet AGL
Weather: no significant weather forecast for this period
Forecast for: RJAA (NARITA INTL , JP)
Text: TAF RJAA 192305Z 2000/2106 34008KT 9999 FEW030
Forecast period: 1000 UTC 20 April 2018 to 0000 UTC 21 April 2018
Forecast type: BECOMING: Conditions expected to become as follows by 1200 UTC 20 April 2018
Winds: from the WNW (300 degrees) at 5 MPH (4 knots; 2.1 m/s)
Visibility: 6 or more miles (10+ km)
Clouds: few clouds at 3000 feet AGL
Weather: no significant weather forecast for this period
Forecast for: RJAA (NARITA INTL , JP)
Text: TAF RJAA 192305Z 2000/2106 34008KT 9999 FEW030
Forecast period: 1000 UTC 20 April 2018 to 0000 UTC 21 April 2018
Forecast type: BECOMING: Conditions expected to become as follows by 1200 UTC 20 April 2018
Winds: from the WNW (300 degrees) at 5 MPH (4 knots; 2.1 m/s)
Visibility: 6 or more miles (10+ km)
Clouds: few clouds at 3000 feet AGL
Weather: no significant weather forecast for this period
Forecast for: RJAA (NARITA INTL , JP)
Text: TAF RJAA 192305Z 2000/2106 34008KT 9999 FEW030
Forecast period: 0000 to 0600 UTC 21 April 2018
Forecast type: BECOMING: Conditions expected to become as follows by 0300 UTC 21 April 2018
Winds: from the SW (220 degrees) at 12 MPH (10 knots; 5.2 m/s)
Visibility: 6 or more miles (10+ km)
Clouds: few clouds at 3000 feet AGL
Weather: no significant weather forecast for this period
Forecast for: RJAA (NARITA INTL , JP)
Text: TAF RJAA 192305Z 2000/2106 34008KT 9999 FEW030
Forecast period: 0000 to 0600 UTC 21 April 2018
Forecast type: BECOMING: Conditions expected to become as follows by 0300 UTC 21 April 2018
Winds: from the SW (220 degrees) at 12 MPH (10 knots; 5.2 m/s)
Visibility: 6 or more miles (10+ km)
Clouds: few clouds at 3000 feet AGL
Weather: no significant weather forecast for this period